Seattle Express — A8GU5 — position and weather

sailwx.info

Track history (hours):
 
Tides and Currents Weather Stations Pressure Air Temp Water Temp Dewpoint Dewpoint Depression Visibility Wind Speed Wind Dir Waves Ship Positions

Seattle Express

Last reported at 2014-Nov-25 20:33 UTC. Time now 2014-Dec-18 05:47 UTC.
Position N 25°50' W 079°27'.
Warning: this ship's position is 22 days out of date.

Length 264.1 m; beam 32.3 m; draft 12.5 m.

Type: Ship (hazmat cat A). MMSI: 636090860.

Date/timePositionNaut miles runAvg speedWind from/ knotsBaromVisibWave heightAir tempDewpointWater temp
2014-Nov-25 20:33N 25°50' W 079°27'1919.5
2014-Nov-25 19:33N 26°09' W 079°25'10 0.3
2014-Nov-24 09:04N 26°18' W 079°20'5 8.1
2014-Nov-24 08:30N 26°18' W 079°25'8 8.8
2014-Nov-24 07:33N 26°15' W 079°34'8 8.6
2014-Nov-24 06:33N 26°13' W 079°43'9 8.7
2014-Nov-24 05:33N 26°11' W 079°52'9 9.2
2014-Nov-24 04:33N 26°07' W 080°02'6 5.6
2014-Nov-24 03:33N 26°04' W 080°07'0 0.1
2014-Nov-24 02:30N 26°04' W 080°07'0 0.0
2014-Nov-24 01:33N 26°04' W 080°07'0 0.0
2014-Nov-24 00:32N 26°04' W 080°07'0 0.0
2014-Nov-23 23:32N 26°04' W 080°07'0 0.0
2014-Nov-23 22:32N 26°04' W 080°07'0 0.0
2014-Nov-23 21:32N 26°04' W 080°07'0 0.0
2014-Nov-23 20:32N 26°04' W 080°07'0 0.0
2014-Nov-23 19:32N 26°04' W 080°07'0 0.0
2014-Nov-23 18:32N 26°04' W 080°07'0 0.0
2014-Nov-23 17:23N 26°04' W 080°07'0 0.0
2014-Nov-23 16:25N 26°04' W 080°07'3 3.5
2014-Nov-23 15:33N 26°06' W 080°04'9 8.7
2014-Nov-23 14:34N 26°11' W 079°57'1414.4
2014-Nov-23 13:33N 26°25' W 079°51'1515.4
2014-Nov-23 12:33N 26°40' W 079°46'1515.4
2014-Nov-23 11:34N 26°55' W 079°42'31813.2
2014-Nov-22 11:29N 32°05' W 081°03'4 4.7
2014-Nov-22 10:32N 32°07' W 081°08'1 0.3
2014-Nov-22 08:26N 32°08' W 081°08'0 0.0
2014-Nov-22 07:10N 32°08' W 081°08'0 0.0
2014-Nov-22 06:26N 32°08' W 081°08'0 0.0
2014-Nov-22 05:32N 32°08' W 081°08'0 0.0
2014-Nov-22 04:29N 32°08' W 081°08'0 0.0
2014-Nov-22 03:28N 32°08' W 081°08'0 0.0
2014-Nov-22 01:29N 32°08' W 081°08'0 0.0
2014-Nov-22 00:13N 32°08' W 081°08'0 0.0
2014-Nov-21 23:32N 32°08' W 081°08'0 0.0
2014-Nov-21 22:33N 32°08' W 081°08'3 3.4
2014-Nov-21 21:33N 32°05' W 081°06'  
Track history (hours):
 
Tides and Currents Weather Stations Pressure Air Temp Water Temp Dewpoint Dewpoint Depression Visibility Wind Speed Wind Dir Waves Ship Positions

Seattle Express

Last reported at 2014-Nov-25 20:33 UTC. Time now 2014-Dec-18 05:47 UTC.
Position N 25°50' W 079°27'.
Warning: this ship's position is 22 days out of date.

Length 264.1 m; beam 32.3 m; draft 12.5 m.

Type: Ship (hazmat cat A). MMSI: 636090860.

Date/timePositionNaut miles runAvg speedWind from/ knotsBaromVisibWave heightAir tempDewpointWater temp
2014-Nov-25 20:33N 25°50' W 079°27'1919.5
2014-Nov-25 19:33N 26°09' W 079°25'10 0.3
2014-Nov-24 09:04N 26°18' W 079°20'5 8.1
2014-Nov-24 08:30N 26°18' W 079°25'8 8.8
2014-Nov-24 07:33N 26°15' W 079°34'8 8.6
2014-Nov-24 06:33N 26°13' W 079°43'9 8.7
2014-Nov-24 05:33N 26°11' W 079°52'9 9.2
2014-Nov-24 04:33N 26°07' W 080°02'6 5.6
2014-Nov-24 03:33N 26°04' W 080°07'0 0.1
2014-Nov-24 02:30N 26°04' W 080°07'0 0.0
2014-Nov-24 01:33N 26°04' W 080°07'0 0.0
2014-Nov-24 00:32N 26°04' W 080°07'0 0.0
2014-Nov-23 23:32N 26°04' W 080°07'0 0.0
2014-Nov-23 22:32N 26°04' W 080°07'0 0.0
2014-Nov-23 21:32N 26°04' W 080°07'0 0.0
2014-Nov-23 20:32N 26°04' W 080°07'0 0.0
2014-Nov-23 19:32N 26°04' W 080°07'0 0.0
2014-Nov-23 18:32N 26°04' W 080°07'0 0.0
2014-Nov-23 17:23N 26°04' W 080°07'0 0.0
2014-Nov-23 16:25N 26°04' W 080°07'3 3.5
2014-Nov-23 15:33N 26°06' W 080°04'9 8.7
2014-Nov-23 14:34N 26°11' W 079°57'1414.4
2014-Nov-23 13:33N 26°25' W 079°51'1515.4
2014-Nov-23 12:33N 26°40' W 079°46'1515.4
2014-Nov-23 11:34N 26°55' W 079°42'31813.2
2014-Nov-22 11:29N 32°05' W 081°03'4 4.7
2014-Nov-22 10:32N 32°07' W 081°08'1 0.3
2014-Nov-22 08:26N 32°08' W 081°08'0 0.0
2014-Nov-22 07:10N 32°08' W 081°08'0 0.0
2014-Nov-22 06:26N 32°08' W 081°08'0 0.0
2014-Nov-22 05:32N 32°08' W 081°08'0 0.0
2014-Nov-22 04:29N 32°08' W 081°08'0 0.0
2014-Nov-22 03:28N 32°08' W 081°08'0 0.0
2014-Nov-22 01:29N 32°08' W 081°08'0 0.0
2014-Nov-22 00:13N 32°08' W 081°08'0 0.0
2014-Nov-21 23:32N 32°08' W 081°08'0 0.0
2014-Nov-21 22:33N 32°08' W 081°08'3 3.4
2014-Nov-21 21:33N 32°05' W 081°06'  

Dump ship's entire track history